Time;durP1;ratioP1;P1;durP2;ratioP2;P2;SDS_P1;SDS_P2;PMS_P1;PMS_P2;Temp;Humidity;BMP_temperature;BMP_pressure;BME280_temperature;BME280_humidity;BME280_pressure;Samples;Min_cycle;Max_cycle;Signal;HPM_P1;HPM_P2
2021/12/03 00:02:10;;;;;;;;;;;0.00;99.90;;;;;;5040395;28;19974;-80
2021/12/03 00:04:35;;;;;;;;;;;0.00;99.90;;;;;;5065701;28;19923;-80
2021/12/03 00:07:01;;;;;;;;;;;0.00;99.90;;;;;;5031146;28;19916;-81
2021/12/03 00:09:32;;;;;;;;;;;0.00;99.90;;;;;;5038541;28;19924;-80
2021/12/03 00:11:57;;;;;;;;;;;0.00;99.90;;;;;;5031055;28;20292;-80
2021/12/03 00:14:23;;;;;;;;;;;0.00;99.90;;;;;;5041559;28;20383;-81
2021/12/03 00:16:48;;;;;;;;;;;0.00;99.90;;;;;;5039548;28;19924;-80
2021/12/03 00:19:14;;;;;;;;;;;0.00;99.90;;;;;;5037006;28;19917;-81
2021/12/03 00:21:40;;;;;;;;;;;0.10;99.90;;;;;;5048463;28;19927;-80
2021/12/03 00:24:05;;;;;;;;;;;0.00;99.90;;;;;;5038519;28;19963;-80
2021/12/03 00:26:31;;;;;;;;;;;0.00;99.90;;;;;;5039296;28;20594;-81
2021/12/03 00:28:57;;;;;;;;;;;0.00;99.90;;;;;;5032579;28;19970;-80
2021/12/03 00:31:22;;;;;;;;;;;0.00;99.90;;;;;;5052212;28;19944;-79
2021/12/03 00:33:48;;;;;;;;;;;0.00;99.90;;;;;;5058520;28;20274;-79
2021/12/03 00:36:13;;;;;;;;;;;0.10;99.90;;;;;;5052214;28;19923;-80
2021/12/03 00:38:42;;;;;;;;;;;0.10;99.90;;;;;;5054526;28;19921;-80
2021/12/03 00:41:10;;;;;;;;;;;0.10;99.90;;;;;;5056510;28;20020;-80
2021/12/03 00:43:47;;;;;;;;;;;0.10;99.90;;;;;;5050594;28;19917;-80
2021/12/03 00:46:16;;;;;;;;;;;0.10;99.90;;;;;;5033417;28;19927;-81
2021/12/03 00:48:41;;;;;;;;;;;0.10;99.90;;;;;;5048048;28;20258;-80
2021/12/03 00:51:08;;;;;;;;;;;0.10;99.90;;;;;;5035534;28;19978;-80
2021/12/03 00:53:34;;;;;;;;;;;0.20;99.90;;;;;;5063122;28;20359;-81
2021/12/03 00:56:00;;;;;;;;;;;0.20;99.90;;;;;;5055919;28;20008;-80
2021/12/03 00:58:25;;;;;;;;;;;0.20;99.90;;;;;;5046001;28;19913;-81
2021/12/03 01:00:51;;;;;;;;;;;0.20;99.90;;;;;;5056385;28;19952;-80
2021/12/03 01:03:16;;;;;;;;;;;0.20;99.90;;;;;;5049997;28;20221;-80
2021/12/03 01:05:42;;;;;;;;;;;0.20;99.90;;;;;;5035847;28;20460;-80
2021/12/03 01:08:08;;;;;;;;;;;0.20;99.90;;;;;;5056298;28;19917;-80
2021/12/03 01:10:33;;;;;;;;;;;0.30;99.90;;;;;;5037022;28;19971;-80
2021/12/03 01:12:59;;;;;;;;;;;0.30;99.90;;;;;;5047985;28;19999;-79
2021/12/03 01:15:26;;;;;;;;;;;0.30;99.90;;;;;;5031847;28;20344;-80
2021/12/03 01:17:53;;;;;;;;;;;0.30;99.90;;;;;;5050628;28;19921;-80
2021/12/03 01:20:19;;;;;;;;;;;0.30;99.90;;;;;;5053782;28;20526;-81
2021/12/03 01:22:45;;;;;;;;;;;0.30;99.90;;;;;;5059096;28;20342;-80
2021/12/03 01:25:12;;;;;;;;;;;0.30;99.90;;;;;;5048247;28;19957;-80
2021/12/03 01:27:37;;;;;;;;;;;0.30;99.90;;;;;;5060283;28;19913;-81
2021/12/03 01:30:06;;;;;;;;;;;0.30;99.90;;;;;;5051793;28;19916;-81
2021/12/03 01:32:31;;;;;;;;;;;0.30;99.90;;;;;;5053072;28;19963;-81
2021/12/03 01:34:57;;;;;;;;;;;0.30;99.90;;;;;;5040932;28;19967;-81
2021/12/03 01:37:23;;;;;;;;;;;0.40;99.90;;;;;;5039788;28;19916;-81
2021/12/03 01:39:48;;;;;;;;;;;0.40;99.90;;;;;;5027579;28;19921;-83
2021/12/03 01:42:14;;;;;;;;;;;0.50;99.90;;;;;;5036739;28;19916;-81
2021/12/03 01:44:40;;;;;;;;;;;0.50;99.90;;;;;;5036104;28;19994;-81
2021/12/03 01:47:05;;;;;;;;;;;0.50;99.90;;;;;;5034349;28;19917;-81
2021/12/03 01:49:31;;;;;;;;;;;0.50;99.90;;;;;;5026627;28;20211;-81
2021/12/03 01:51:56;;;;;;;;;;;0.50;99.90;;;;;;5041148;28;19928;-81
2021/12/03 01:54:22;;;;;;;;;;;0.60;99.90;;;;;;5037934;28;19924;-81
2021/12/03 01:56:47;;;;;;;;;;;0.60;99.90;;;;;;5035543;28;19919;-82
2021/12/03 01:59:13;;;;;;;;;;;0.60;99.90;;;;;;5031682;28;19979;-81
2021/12/03 02:01:39;;;;;;;;;;;0.60;99.90;;;;;;5064988;28;19925;-82
2021/12/03 02:04:05;;;;;;;;;;;0.70;99.90;;;;;;5033927;28;19955;-81
2021/12/03 02:06:31;;;;;;;;;;;0.70;99.90;;;;;;5051027;28;20304;-82
2021/12/03 02:08:56;;;;;;;;;;;0.70;99.90;;;;;;5050277;28;19938;-80
2021/12/03 02:11:23;;;;;;;;;;;0.80;99.90;;;;;;5059822;28;20300;-82
2021/12/03 02:13:48;;;;;;;;;;;0.80;99.90;;;;;;5034706;28;20299;-81
2021/12/03 02:16:15;;;;;;;;;;;0.70;99.90;;;;;;5037645;28;19962;-81
2021/12/03 02:18:41;;;;;;;;;;;0.80;99.90;;;;;;5045964;28;19913;-81
2021/12/03 02:21:07;;;;;;;;;;;0.80;99.90;;;;;;5061102;28;19920;-81
2021/12/03 02:23:33;;;;;;;;;;;0.80;99.90;;;;;;5038209;28;19931;-80
2021/12/03 02:25:59;;;;;;;;;;;0.80;99.90;;;;;;5034258;28;20352;-81
2021/12/03 02:28:26;;;;;;;;;;;0.80;99.90;;;;;;5065103;28;20004;-81
2021/12/03 02:30:52;;;;;;;;;;;0.80;99.90;;;;;;5061167;28;19920;-80
2021/12/03 02:33:18;;;;;;;;;;;0.90;99.90;;;;;;5033453;28;19920;-81
2021/12/03 02:35:44;;;;;;;;;;;0.90;99.90;;;;;;5035033;28;19917;-81
2021/12/03 02:38:13;;;;;;;;;;;0.90;99.90;;;;;;5036298;28;19932;-80
2021/12/03 02:40:39;;;;;;;;;;;0.90;99.90;;;;;;5037487;28;19923;-80
2021/12/03 02:43:05;;;;;;;;;;;0.90;99.90;;;;;;5036161;28;19976;-81
2021/12/03 02:45:31;;;;;;;;;;;1.00;99.90;;;;;;5045915;28;20330;-80
2021/12/03 02:47:58;;;;;;;;;;;1.00;99.90;;;;;;5038098;28;19913;-80
2021/12/03 02:50:24;;;;;;;;;;;1.00;99.90;;;;;;5039738;28;20231;-80
2021/12/03 02:52:50;;;;;;;;;;;1.00;99.90;;;;;;5062933;28;19923;-80
2021/12/03 02:55:17;;;;;;;;;;;1.00;99.90;;;;;;5043843;28;19990;-81
2021/12/03 02:57:42;;;;;;;;;;;1.00;99.90;;;;;;5068093;28;19912;-81
2021/12/03 03:00:10;;;;;;;;;;;1.00;99.90;;;;;;5051664;28;19920;-81
2021/12/03 03:02:36;;;;;;;;;;;1.00;99.90;;;;;;5057500;28;20421;-80
2021/12/03 03:05:01;;;;;;;;;;;1.00;99.90;;;;;;5057237;28;19927;-80
2021/12/03 03:07:29;;;;;;;;;;;1.00;99.90;;;;;;5053618;28;19913;-80
2021/12/03 03:09:55;;;;;;;;;;;1.00;99.90;;;;;;5040823;28;19975;-80
2021/12/03 03:12:21;;;;;;;;;;;1.00;99.90;;;;;;5067069;28;20444;-81
2021/12/03 03:14:51;;;;;;;;;;;1.00;99.90;;;;;;5046896;28;19928;-81
2021/12/03 03:17:16;;;;;;;;;;;1.00;99.90;;;;;;5041385;28;20011;-81
2021/12/03 03:19:42;;;;;;;;;;;1.00;99.90;;;;;;5057568;28;20007;-81
2021/12/03 03:22:08;;;;;;;;;;;0.90;99.90;;;;;;5047415;28;19920;-80
2021/12/03 03:24:37;;;;;;;;;;;1.00;99.90;;;;;;5037964;28;20022;-81
2021/12/03 03:27:04;;;;;;;;;;;1.00;99.90;;;;;;5062090;28;20307;-81
2021/12/03 03:29:30;;;;;;;;;;;1.00;99.90;;;;;;5049581;28;20294;-81
2021/12/03 03:31:56;;;;;;;;;;;1.10;99.90;;;;;;5038441;28;20203;-80
2021/12/03 03:34:21;;;;;;;;;;;1.00;99.90;;;;;;5040172;28;19966;-80
2021/12/03 03:36:47;;;;;;;;;;;1.10;99.90;;;;;;5034081;28;19917;-81
2021/12/03 03:39:14;;;;;;;;;;;1.10;99.90;;;;;;5034931;28;19959;-80
2021/12/03 03:41:40;;;;;;;;;;;1.10;99.90;;;;;;5061663;28;19928;-81
2021/12/03 03:44:06;;;;;;;;;;;1.10;99.90;;;;;;5030848;28;20016;-81
2021/12/03 03:46:31;;;;;;;;;;;1.10;99.90;;;;;;5048851;28;20383;-80
2021/12/03 03:48:57;;;;;;;;;;;1.10;99.90;;;;;;5033983;28;19917;-81
2021/12/03 03:51:23;;;;;;;;;;;1.20;99.90;;;;;;5039429;28;19917;-81
2021/12/03 03:53:48;;;;;;;;;;;1.20;99.90;;;;;;5044616;28;19917;-81
2021/12/03 03:56:14;;;;;;;;;;;1.20;99.90;;;;;;5034609;28;20211;-80
2021/12/03 03:58:41;;;;;;;;;;;1.20;99.90;;;;;;5039236;28;19913;-81
2021/12/03 04:01:10;;;;;;;;;;;1.20;99.90;;;;;;5046315;28;19999;-82
2021/12/03 04:03:36;;;;;;;;;;;1.30;99.90;;;;;;5054691;28;20265;-82
2021/12/03 04:06:02;;;;;;;;;;;1.30;99.90;;;;;;5060645;28;19920;-82
2021/12/03 04:08:31;;;;;;;;;;;1.40;99.90;;;;;;5059594;28;19920;-81
2021/12/03 04:10:57;;;;;;;;;;;1.50;99.90;;;;;;5046042;28;19916;-83
2021/12/03 04:13:23;;;;;;;;;;;1.50;99.90;;;;;;5043496;28;19958;-83
2021/12/03 04:15:48;;;;;;;;;;;1.70;99.90;;;;;;5060634;28;20524;-83
2021/12/03 04:18:14;;;;;;;;;;;1.70;99.90;;;;;;5039635;28;20239;-81
2021/12/03 04:20:40;;;;;;;;;;;1.70;99.90;;;;;;5041471;28;20228;-87
2021/12/03 04:23:05;;;;;;;;;;;1.70;99.90;;;;;;5059491;28;19925;-81
2021/12/03 04:25:31;;;;;;;;;;;1.80;99.90;;;;;;5037253;28;20227;-84
2021/12/03 04:27:56;;;;;;;;;;;1.80;99.90;;;;;;5049061;28;20342;-83
2021/12/03 04:30:24;;;;;;;;;;;1.80;99.90;;;;;;5032502;28;19983;-92
2021/12/03 04:32:50;;;;;;;;;;;1.80;99.90;;;;;;5041471;28;19962;-87
2021/12/03 04:35:16;;;;;;;;;;;1.80;99.90;;;;;;5055182;28;19935;-85
2021/12/03 04:37:41;;;;;;;;;;;1.80;99.90;;;;;;5032648;28;20304;-85
2021/12/03 04:40:09;;;;;;;;;;;1.80;99.90;;;;;;5036983;28;20299;-89
2021/12/03 04:42:35;;;;;;;;;;;1.80;99.90;;;;;;5049779;28;19912;-84
2021/12/03 04:45:00;;;;;;;;;;;1.80;99.90;;;;;;5033302;28;19934;-91
2021/12/03 04:47:26;;;;;;;;;;;1.90;99.90;;;;;;5030044;28;19917;-84
2021/12/03 04:49:52;;;;;;;;;;;1.90;99.90;;;;;;5033502;28;19913;-87
2021/12/03 04:52:17;;;;;;;;;;;1.90;99.90;;;;;;5046676;28;19936;-92
2021/12/03 04:54:43;;;;;;;;;;;2.00;99.90;;;;;;5049032;28;20022;-80
2021/12/03 04:57:09;;;;;;;;;;;2.00;99.90;;;;;;5028765;28;19935;-86
2021/12/03 04:59:35;;;;;;;;;;;2.10;99.90;;;;;;5034727;28;19913;-85
2021/12/03 05:02:00;;;;;;;;;;;2.10;99.90;;;;;;5049239;28;19957;-83
2021/12/03 05:04:26;;;;;;;;;;;2.10;99.90;;;;;;5034882;28;19919;-84
2021/12/03 05:07:04;;;;;;;;;;;2.10;99.90;;;;;;5030678;28;20223;-84
2021/12/03 05:09:29;;;;;;;;;;;2.20;99.90;;;;;;5027768;28;19917;-84
2021/12/03 05:11:55;;;;;;;;;;;2.10;99.90;;;;;;5050529;28;19921;-84
2021/12/03 05:14:20;;;;;;;;;;;2.10;99.90;;;;;;5050919;28;19921;-84
2021/12/03 05:16:48;;;;;;;;;;;2.20;99.90;;;;;;5035627;28;19917;-84
2021/12/03 05:19:14;;;;;;;;;;;2.10;99.90;;;;;;5036503;28;19924;-82
2021/12/03 05:21:40;;;;;;;;;;;2.20;99.90;;;;;;5054087;28;19965;-84
2021/12/03 05:24:06;;;;;;;;;;;2.20;99.90;;;;;;5059381;28;19920;-84
2021/12/03 05:26:31;;;;;;;;;;;2.20;99.90;;;;;;5046598;28;19915;-86
2021/12/03 05:28:57;;;;;;;;;;;2.20;99.90;;;;;;5050091;28;19920;-85
2021/12/03 05:31:22;;;;;;;;;;;2.30;99.90;;;;;;5043495;28;19916;-84
2021/12/03 05:33:48;;;;;;;;;;;2.30;99.90;;;;;;5033547;28;19994;-84
2021/12/03 05:36:14;;;;;;;;;;;2.30;99.90;;;;;;5037474;28;19917;-84
2021/12/03 05:38:40;;;;;;;;;;;2.30;99.90;;;;;;5055841;28;19913;-88
2021/12/03 05:41:05;;;;;;;;;;;2.40;99.90;;;;;;5053249;28;19920;-83
2021/12/03 05:43:31;;;;;;;;;;;2.40;99.90;;;;;;5049040;28;19967;-83
2021/12/03 05:45:57;;;;;;;;;;;2.40;99.90;;;;;;5032348;28;19913;-84
2021/12/03 05:48:22;;;;;;;;;;;2.40;99.90;;;;;;5032740;28;19971;-84
2021/12/03 05:50:48;;;;;;;;;;;2.40;99.90;;;;;;5034436;28;20254;-84
2021/12/03 05:53:14;;;;;;;;;;;2.50;99.90;;;;;;5030803;28;19963;-82
2021/12/03 05:55:39;;;;;;;;;;;2.50;99.90;;;;;;5044527;28;19909;-84
2021/12/03 05:58:05;;;;;;;;;;;2.50;99.90;;;;;;5049951;28;19913;-85
2021/12/03 06:00:34;;;;;;;;;;;2.50;99.90;;;;;;5029237;28;20235;-84
2021/12/03 06:03:00;;;;;;;;;;;2.40;99.90;;;;;;5048954;28;19917;-85
2021/12/03 06:05:27;;;;;;;;;;;2.40;99.90;;;;;;5027680;28;19913;-85
2021/12/03 06:07:53;;;;;;;;;;;2.40;99.90;;;;;;5031066;28;19947;-84
2021/12/03 06:10:19;;;;;;;;;;;2.50;99.90;;;;;;5050438;28;19921;-88
2021/12/03 06:12:45;;;;;;;;;;;2.50;99.90;;;;;;5035188;28;19908;-84
2021/12/03 06:15:12;;;;;;;;;;;2.50;99.90;;;;;;5043674;28;20251;-95
2021/12/03 06:17:38;;;;;;;;;;;2.50;99.90;;;;;;5039505;28;19913;-91
2021/12/03 06:20:04;;;;;;;;;;;2.50;99.90;;;;;;5050599;28;19971;-84
2021/12/03 06:22:29;;;;;;;;;;;2.50;99.90;;;;;;5034477;28;19943;-84
2021/12/03 06:24:56;;;;;;;;;;;2.50;99.90;;;;;;5040023;28;20303;-85
2021/12/03 06:27:22;;;;;;;;;;;2.60;99.90;;;;;;5049530;28;19916;-83
2021/12/03 06:29:47;;;;;;;;;;;2.60;99.90;;;;;;5033192;28;20315;-85
2021/12/03 06:32:13;;;;;;;;;;;2.60;99.90;;;;;;5033854;28;19943;-83
2021/12/03 06:34:39;;;;;;;;;;;2.60;99.90;;;;;;5034203;28;19920;-82
2021/12/03 06:37:04;;;;;;;;;;;2.60;99.90;;;;;;5035799;28;19919;-89
2021/12/03 06:39:30;;;;;;;;;;;2.70;99.90;;;;;;5032636;28;19913;-82
2021/12/03 06:41:55;;;;;;;;;;;2.70;99.90;;;;;;5033340;28;19917;-82
2021/12/03 06:44:22;;;;;;;;;;;2.70;99.90;;;;;;5035207;28;19963;-84
2021/12/03 06:46:48;;;;;;;;;;;2.70;99.90;;;;;;5030925;28;19943;-82
2021/12/03 06:49:14;;;;;;;;;;;2.70;99.90;;;;;;5036260;28;19917;-82
2021/12/03 06:51:42;;;;;;;;;;;2.70;99.90;;;;;;5035601;28;19914;-83
2021/12/03 06:54:10;;;;;;;;;;;2.70;99.90;;;;;;5034704;28;20008;-83
2021/12/03 06:56:48;;;;;;;;;;;2.80;99.90;;;;;;5031923;28;21134;-85
2021/12/03 06:59:17;;;;;;;;;;;2.80;99.90;;;;;;5055173;28;19916;-81
2021/12/03 07:01:42;;;;;;;;;;;2.90;99.90;;;;;;5050589;28;19913;-94
2021/12/03 07:04:08;;;;;;;;;;;2.90;99.90;;;;;;5039914;28;19913;-87
2021/12/03 07:06:34;;;;;;;;;;;2.90;99.90;;;;;;5038579;28;19916;-89
2021/12/03 07:09:00;;;;;;;;;;;2.90;99.90;;;;;;5051616;28;19965;-89
2021/12/03 07:11:25;;;;;;;;;;;3.00;99.90;;;;;;5053037;28;19913;-84
2021/12/03 07:13:51;;;;;;;;;;;3.00;99.90;;;;;;5060338;28;19913;-91
2021/12/03 07:16:16;;;;;;;;;;;3.00;99.90;;;;;;5036632;28;19917;-85
2021/12/03 07:18:45;;;;;;;;;;;3.00;99.90;;;;;;5038659;28;19916;-83
2021/12/03 07:21:11;;;;;;;;;;;3.00;99.90;;;;;;5064139;22;19932;-86
2021/12/03 07:23:37;;;;;;;;;;;3.00;99.90;;;;;;5039983;28;20004;-92
2021/12/03 07:26:03;;;;;;;;;;;3.10;99.90;;;;;;5017450;28;19996;-82
2021/12/03 07:28:29;;;;;;;;;;;3.10;99.90;;;;;;5036633;28;20305;-83
2021/12/03 07:30:55;;;;;;;;;;;3.10;99.90;;;;;;5018316;28;19924;-79
2021/12/03 07:33:21;;;;;;;;;;;3.10;99.90;;;;;;5036705;28;19913;-81
2021/12/03 07:35:47;;;;;;;;;;;3.10;99.90;;;;;;5036960;28;19939;-81
2021/12/03 07:38:15;;;;;;;;;;;3.00;99.90;;;;;;5019658;28;20283;-87
2021/12/03 07:40:44;;;;;;;;;;;3.10;99.90;;;;;;5017470;28;19913;-87
2021/12/03 07:43:10;;;;;;;;;;;3.00;99.90;;;;;;5037461;28;19917;-83
2021/12/03 07:45:36;;;;;;;;;;;3.10;99.90;;;;;;5033991;28;19913;-85
2021/12/03 07:48:02;;;;;;;;;;;3.10;99.90;;;;;;5027905;28;19948;-88
2021/12/03 07:50:28;;;;;;;;;;;3.10;99.90;;;;;;5035664;28;20703;-89
2021/12/03 07:52:53;;;;;;;;;;;3.10;99.90;;;;;;5011610;28;20317;-83
2021/12/03 07:55:19;;;;;;;;;;;3.10;99.90;;;;;;5018519;28;19967;-84
2021/12/03 07:57:45;;;;;;;;;;;3.10;99.90;;;;;;5032621;28;19914;-87
2021/12/03 08:00:10;;;;;;;;;;;3.10;99.90;;;;;;5016508;28;19916;-83
2021/12/03 08:02:36;;;;;;;;;;;3.10;99.90;;;;;;5019802;28;19955;-87
2021/12/03 08:05:02;;;;;;;;;;;3.10;99.90;;;;;;5037250;28;19917;-90
2021/12/03 08:07:28;;;;;;;;;;;3.10;99.90;;;;;;5019099;28;19951;-86
2021/12/03 08:09:54;;;;;;;;;;;3.10;99.90;;;;;;5017605;28;20008;-84
2021/12/03 08:12:20;;;;;;;;;;;3.10;99.90;;;;;;5019474;28;19910;-79
2021/12/03 08:14:45;;;;;;;;;;;3.10;99.90;;;;;;5037661;28;19913;-80
2021/12/03 08:17:11;;;;;;;;;;;3.10;99.90;;;;;;5019518;28;19975;-86
2021/12/03 08:19:37;;;;;;;;;;;3.00;99.90;;;;;;5019557;28;19987;-81
2021/12/03 08:22:03;;;;;;;;;;;3.00;99.90;;;;;;5036526;28;19921;-80
2021/12/03 08:24:28;;;;;;;;;;;3.00;99.90;;;;;;5035139;28;20012;-85
2021/12/03 08:26:54;;;;;;;;;;;3.00;99.90;;;;;;5036608;28;19928;-80
2021/12/03 08:29:19;;;;;;;;;;;3.00;99.90;;;;;;5018611;28;20327;-81
2021/12/03 08:31:45;;;;;;;;;;;3.00;99.90;;;;;;5019179;28;19913;-83
2021/12/03 08:34:11;;;;;;;;;;;3.00;99.90;;;;;;5035744;28;19928;-83
2021/12/03 08:36:36;;;;;;;;;;;3.00;99.90;;;;;;5014408;28;20255;-80
2021/12/03 08:39:03;;;;;;;;;;;3.00;99.90;;;;;;5035649;28;19920;-81
2021/12/03 08:41:29;;;;;;;;;;;3.00;99.90;;;;;;5036785;28;19917;-88
2021/12/03 08:43:55;;;;;;;;;;;3.00;99.90;;;;;;5018401;28;19925;-84
2021/12/03 08:46:28;;;;;;;;;;;3.00;99.90;;;;;;5034449;28;20009;-79
2021/12/03 08:48:55;;;;;;;;;;;3.00;99.90;;;;;;5018876;28;19967;-85
2021/12/03 08:51:30;;;;;;;;;;;3.00;99.90;;;;;;5015164;28;19947;-84
2021/12/03 08:56:40;;;;;;;;;;;3.00;99.90;;;;;;5027858;28;19972;-82
2021/12/03 08:59:06;;;;;;;;;;;3.10;99.90;;;;;;5030995;28;20293;-85
2021/12/03 09:01:32;;;;;;;;;;;3.10;99.90;;;;;;5030282;28;19913;-88
2021/12/03 09:03:57;;;;;;;;;;;3.10;99.90;;;;;;5031008;28;19953;-86
2021/12/03 09:06:23;;;;;;;;;;;3.10;99.90;;;;;;5031769;28;20453;-80
2021/12/03 09:08:49;;;;;;;;;;;3.10;99.90;;;;;;5023949;28;20008;-81
2021/12/03 09:11:16;;;;;;;;;;;3.10;99.90;;;;;;5014202;28;20091;-82
2021/12/03 09:13:42;;;;;;;;;;;3.10;99.90;;;;;;5017628;28;19913;-83
2021/12/03 09:16:10;;;;;;;;;;;3.10;99.90;;;;;;5029314;28;20028;-82
2021/12/03 09:18:41;;;;;;;;;;;3.20;99.90;;;;;;5017759;28;20002;-81
2021/12/03 09:21:12;;;;;;;;;;;3.20;99.90;;;;;;5009521;28;19928;-85
2021/12/03 09:26:19;;;;;;;;;;;3.20;99.90;;;;;;5034527;28;19967;-84
2021/12/03 09:28:50;;;;;;;;;;;3.20;99.90;;;;;;5033466;28;19927;-79
2021/12/03 09:31:16;;;;;;;;;;;3.30;99.90;;;;;;5033344;28;19913;-85
2021/12/03 09:33:45;;;;;;;;;;;3.30;99.90;;;;;;5011397;28;19920;-83
2021/12/03 09:36:11;;;;;;;;;;;3.30;99.90;;;;;;5015705;28;19992;-82
2021/12/03 09:38:37;;;;;;;;;;;3.30;99.90;;;;;;5013209;28;20423;-79
2021/12/03 09:41:13;;;;;;;;;;;3.30;99.90;;;;;;5033724;28;19913;-85
2021/12/03 09:43:41;;;;;;;;;;;3.30;99.90;;;;;;5014745;28;19932;-82
2021/12/03 09:46:19;;;;;;;;;;;3.40;99.90;;;;;;5028181;28;19923;-82
2021/12/03 09:51:35;;;;;;;;;;;3.50;99.90;;;;;;5029454;28;19913;-92
2021/12/03 09:56:31;;;;;;;;;;;3.50;99.90;;;;;;5030007;28;20296;-85
2021/12/03 10:01:48;;;;;;;;;;;3.50;99.90;;;;;;5029463;28;19924;-83
2021/12/03 10:05:10;;;;;;;;;;;3.50;99.90;;;;;;5030739;28;20338;-83
2021/12/03 10:15:05;;;;;;;;;;;3.70;99.90;;;;;;5028303;28;19960;-82
2021/12/03 10:41:55;;;;;;;;;;;3.70;99.90;;;;;;5033536;28;19924;-91
2021/12/03 10:47:29;;;;;;;;;;;3.70;99.90;;;;;;5029141;28;19936;-79
2021/12/03 10:50:02;;;;;;;;;;;3.70;99.90;;;;;;5033048;28;19964;-79
2021/12/03 10:52:49;;;;;;;;;;;3.60;99.90;;;;;;5040927;28;19917;-79
2021/12/03 10:55:47;;;;;;;;;;;3.60;99.90;;;;;;5016031;28;19937;-85
2021/12/03 11:28:34;;;;;;;;;;;3.50;99.90;;;;;;5029879;28;20318;-90
2021/12/03 12:44:24;;;;;;;;;;;4.10;99.90;;;;;;5024259;28;19970;-85
2021/12/03 13:22:10;;;;;;;;;;;4.30;99.90;;;;;;5035353;28;19932;-95
2021/12/03 13:57:18;;;;;;;;;;;4.10;99.90;;;;;;5049212;22;19932;-76
2021/12/03 14:07:42;;;;;;;;;;;4.10;99.90;;;;;;4930604;29;19921;-94
2021/12/03 14:45:29;;;;;;;;;;;4.00;99.90;;;;;;5023263;28;19968;-84
2021/12/03 14:55:33;;;;;;;;;;;4.00;99.90;;;;;;5038303;28;19988;-87
2021/12/03 14:58:14;;;;;;;;;;;4.00;99.90;;;;;;5017776;28;20326;-90
2021/12/03 15:08:11;;;;;;;;;;;4.00;99.90;;;;;;5032839;28;19913;-93
2021/12/03 15:11:00;;;;;;;;;;;4.00;99.90;;;;;;5032559;28;19913;-86
2021/12/03 15:14:02;;;;;;;;;;;4.00;99.90;;;;;;5029551;28;20295;-91
2021/12/03 15:32:19;;;;;;;;;;;4.00;99.90;;;;;;5031525;28;19928;-91
2021/12/03 16:04:19;;;;;;;;;;;4.10;99.90;;;;;;5036783;28;19948;-80
2021/12/03 16:25:25;;;;;;;;;;;4.10;99.90;;;;;;5032644;28;20008;-91
2021/12/03 16:47:14;;;;;;;;;;;4.20;99.90;;;;;;5033450;28;19920;-92
2021/12/03 16:52:29;;;;;;;;;;;4.20;99.90;;;;;;5036266;28;19920;-93
2021/12/03 16:54:57;;;;;;;;;;;4.10;99.90;;;;;;5037032;28;19959;-93
2021/12/03 16:57:43;;;;;;;;;;;4.20;99.90;;;;;;5014693;28;20264;-86
2021/12/03 17:00:25;;;;;;;;;;;4.20;99.90;;;;;;5027186;28;20455;-85
2021/12/03 17:03:01;;;;;;;;;;;4.20;99.90;;;;;;5053503;28;19924;-82
2021/12/03 17:22:12;;;;;;;;;;;4.20;99.90;;;;;;5034496;28;19924;-90
2021/12/03 18:03:38;;;;;;;;;;;4.20;99.90;;;;;;5034103;28;19984;-80
2021/12/03 18:08:41;;;;;;;;;;;4.20;99.90;;;;;;5036537;28;19940;-91
2021/12/03 18:49:04;;;;;;;;;;;4.30;99.90;;;;;;5027403;28;19917;-79
2021/12/03 18:56:32;;;;;;;;;;;4.30;99.90;;;;;;5025081;28;19930;-79
2021/12/03 18:59:03;;;;;;;;;;;4.30;99.90;;;;;;4997173;28;19917;-76
2021/12/03 19:01:30;;;;;;;;;;;4.30;99.90;;;;;;5026424;28;19933;-83
2021/12/03 19:06:29;;;;;;;;;;;4.30;99.90;;;;;;5011102;28;20261;-79
2021/12/03 19:11:34;;;;;;;;;;;4.30;99.90;;;;;;5003351;28;19945;-80
2021/12/03 19:14:00;;;;;;;;;;;4.30;99.90;;;;;;5000397;28;20396;-82
2021/12/03 19:16:26;;;;;;;;;;;4.30;99.90;;;;;;5016287;28;19959;-80
2021/12/03 19:18:54;;;;;;;;;;;4.30;99.90;;;;;;5016263;28;19913;-81
2021/12/03 19:21:25;;;;;;;;;;;4.30;99.90;;;;;;5028487;28;19957;-92
2021/12/03 19:23:52;;;;;;;;;;;4.30;99.90;;;;;;4997310;28;19917;-91
2021/12/03 19:26:19;;;;;;;;;;;4.30;99.90;;;;;;5000731;28;19913;-90
2021/12/03 19:28:45;;;;;;;;;;;4.30;99.90;;;;;;5008026;28;19961;-91
2021/12/03 19:31:11;;;;;;;;;;;4.30;99.90;;;;;;5005594;28;19956;-89
2021/12/03 19:33:37;;;;;;;;;;;4.30;99.90;;;;;;5000022;28;20305;-89
2021/12/03 19:36:04;;;;;;;;;;;4.30;99.90;;;;;;5017159;28;19953;-90
2021/12/03 19:38:31;;;;;;;;;;;4.30;99.90;;;;;;5011742;28;19920;-92
2021/12/03 19:41:04;;;;;;;;;;;4.30;99.90;;;;;;5001616;28;19914;-93
2021/12/03 19:43:39;;;;;;;;;;;4.30;99.90;;;;;;5008117;28;19968;-89
2021/12/03 19:46:06;;;;;;;;;;;4.30;99.90;;;;;;5004988;28;20297;-92
2021/12/03 19:48:42;;;;;;;;;;;4.30;99.90;;;;;;5018398;28;19920;-90
2021/12/03 19:51:14;;;;;;;;;;;4.30;99.90;;;;;;5006279;28;19925;-91
2021/12/03 19:53:48;;;;;;;;;;;4.30;99.90;;;;;;5023087;28;19922;-89
2021/12/03 19:56:13;;;;;;;;;;;4.30;99.90;;;;;;4993732;28;19921;-93
2021/12/03 19:58:39;;;;;;;;;;;4.30;99.90;;;;;;5008500;28;19918;-92
2021/12/03 20:01:05;;;;;;;;;;;4.30;99.90;;;;;;5011145;28;19913;-95
2021/12/03 20:03:30;;;;;;;;;;;4.30;99.90;;;;;;5025704;28;20376;-96
2021/12/03 20:05:56;;;;;;;;;;;4.30;99.90;;;;;;5008616;28;20312;-86
2021/12/03 20:08:22;;;;;;;;;;;4.30;99.90;;;;;;5024815;28;19921;-92
2021/12/03 20:10:49;;;;;;;;;;;4.30;99.90;;;;;;5024485;28;19956;-89
2021/12/03 20:13:21;;;;;;;;;;;4.30;99.90;;;;;;5012365;28;19917;-91
2021/12/03 20:18:43;;;;;;;;;;;4.30;99.90;;;;;;5020881;28;19975;-96
2021/12/03 20:21:17;;;;;;;;;;;4.30;99.90;;;;;;5072044;23;19925;-95
2021/12/03 20:26:46;;;;;;;;;;;4.30;99.90;;;;;;5114786;22;19995;-80
2021/12/03 20:29:26;;;;;;;;;;;4.30;99.90;;;;;;5103434;28;20287;-90
2021/12/03 20:37:46;;;;;;;;;;;4.30;99.90;;;;;;5065954;28;19920;-91
2021/12/03 20:40:16;;;;;;;;;;;4.30;99.90;;;;;;5054149;28;19920;-96
2021/12/03 20:50:49;;;;;;;;;;;4.30;99.90;;;;;;5062542;28;19923;-93
2021/12/03 21:09:31;;;;;;;;;;;4.30;99.90;;;;;;5067014;28;19974;-94
2021/12/03 21:11:59;;;;;;;;;;;4.40;99.90;;;;;;5048202;28;19920;-89
2021/12/03 21:14:35;;;;;;;;;;;4.30;99.90;;;;;;5070081;28;19913;-95
2021/12/03 21:17:16;;;;;;;;;;;4.30;99.90;;;;;;5071882;28;19916;-93
2021/12/03 21:19:58;;;;;;;;;;;4.30;99.90;;;;;;5068564;28;19917;-89
2021/12/03 21:22:29;;;;;;;;;;;4.30;99.90;;;;;;5064912;28;19966;-84
2021/12/03 21:24:58;;;;;;;;;;;4.40;99.90;;;;;;5079863;28;19912;-93
2021/12/03 21:27:32;;;;;;;;;;;4.30;99.90;;;;;;5093344;28;19923;-82
2021/12/03 21:30:50;;;;;;;;;;;4.30;99.90;;;;;;5068942;28;20274;-88
2021/12/03 21:40:54;;;;;;;;;;;4.30;99.90;;;;;;5068979;28;19916;-82
2021/12/03 21:43:11;;;;;;;;;;;4.30;99.90;;;;;;5069612;28;19920;-83
2021/12/03 21:45:37;;;;;;;;;;;4.30;99.90;;;;;;5069012;28;20211;-93
2021/12/03 21:48:03;;;;;;;;;;;4.40;99.90;;;;;;5063939;28;20373;-91
2021/12/03 21:50:28;;;;;;;;;;;4.30;99.90;;;;;;5075394;28;19913;-92
2021/12/03 21:52:54;;;;;;;;;;;4.40;99.90;;;;;;5061918;28;19917;-91
2021/12/03 21:55:22;;;;;;;;;;;4.40;99.90;;;;;;5071173;28;20203;-80
2021/12/03 21:57:49;;;;;;;;;;;4.40;99.90;;;;;;5069192;28;19920;-91
2021/12/03 22:00:15;;;;;;;;;;;4.40;99.90;;;;;;5059789;28;20212;-89
2021/12/03 22:02:40;;;;;;;;;;;4.40;99.90;;;;;;5069880;28;19931;-89
2021/12/03 22:05:06;;;;;;;;;;;4.40;99.90;;;;;;5088172;28;20261;-91
2021/12/03 22:07:32;;;;;;;;;;;4.40;99.90;;;;;;5069964;28;19909;-94
2021/12/03 22:09:57;;;;;;;;;;;4.40;99.90;;;;;;5072445;28;19923;-96
2021/12/03 22:12:23;;;;;;;;;;;4.40;99.90;;;;;;5071815;28;19912;-83
2021/12/03 22:14:48;;;;;;;;;;;4.40;99.90;;;;;;5090564;28;20006;-81
2021/12/03 22:17:14;;;;;;;;;;;4.40;99.90;;;;;;5090696;28;20009;-96
2021/12/03 22:19:40;;;;;;;;;;;4.30;99.90;;;;;;5084958;28;19920;-91
2021/12/03 22:22:08;;;;;;;;;;;4.30;99.90;;;;;;5073283;28;19973;-93
2021/12/03 22:24:37;;;;;;;;;;;4.30;99.90;;;;;;5089280;28;19965;-96
2021/12/03 22:27:04;;;;;;;;;;;4.40;99.90;;;;;;5084922;22;20206;-89
2021/12/03 22:29:30;;;;;;;;;;;4.40;99.90;;;;;;5074812;28;19920;-94
2021/12/03 22:31:55;;;;;;;;;;;4.40;99.90;;;;;;5044176;28;19927;-83
2021/12/03 22:34:21;;;;;;;;;;;4.40;99.90;;;;;;5087600;23;19950;-81
2021/12/03 22:36:53;;;;;;;;;;;4.40;99.90;;;;;;5066702;28;20613;-89
2021/12/03 22:39:19;;;;;;;;;;;4.40;99.90;;;;;;5067068;28;20032;-89
2021/12/03 22:41:47;;;;;;;;;;;4.40;99.90;;;;;;5065154;28;19952;-81
2021/12/03 22:44:13;;;;;;;;;;;4.30;99.90;;;;;;5092206;28;19935;-90
2021/12/03 22:54:08;;;;;;;;;;;4.40;99.90;;;;;;5091750;28;19924;-96
2021/12/03 22:56:34;;;;;;;;;;;4.40;99.90;;;;;;5068416;28;20060;-92
2021/12/03 22:58:59;;;;;;;;;;;4.40;99.90;;;;;;5067157;28;19967;-82
2021/12/03 23:01:25;;;;;;;;;;;4.40;99.90;;;;;;5084921;28;19916;-92
2021/12/03 23:03:52;;;;;;;;;;;4.40;99.90;;;;;;5087162;28;19928;-90
2021/12/03 23:06:18;;;;;;;;;;;4.40;99.90;;;;;;5087268;28;20327;-94
2021/12/03 23:08:44;;;;;;;;;;;4.40;99.90;;;;;;5066568;28;19920;-88
2021/12/03 23:11:10;;;;;;;;;;;4.40;99.90;;;;;;5087174;28;19957;-84
2021/12/03 23:13:36;;;;;;;;;;;4.30;99.90;;;;;;5068192;28;20211;-88
2021/12/03 23:16:02;;;;;;;;;;;4.40;99.90;;;;;;5066502;28;19916;-84